CDT,Max TemperatureF,Mean TemperatureF,Min TemperatureF,Max Dew PointF,MeanDew PointF,Min DewpointF,Max Humidity, Mean Humidity, Min Humidity, Max Sea Level PressureIn, Mean Sea Level PressureIn, Min Sea Level PressureIn, Max VisibilityMiles, Mean VisibilityMiles, Min VisibilityMiles, Max Wind SpeedMPH, Mean Wind SpeedMPH, Max Gust SpeedMPH,PrecipitationIn, CloudCover, Events, WindDirDegrees
2014-4-1,55,42,28,28,23,18,69,48,31,30.13,30.04,29.93,10,10,9,18,10,29,0.00,5,,63
2014-4-2,69,56,42,48,40,27,87,67,46,29.93,29.77,29.65,10,7,0,20,11,26,0.00,6,,77
2014-4-3,48,42,35,45,39,28,93,81,70,29.97,29.71,29.59,10,4,0,24,12,31,0.00,8,,338
2014-4-4,53,42,32,28,25,19,81,55,33,30.20,30.12,29.99,10,10,10,26,15,40,0.00,2,,344
2014-4-5,62,46,30,28,25,21,75,46,24,30.16,30.10,30.00,10,9,2,17,10,23,0.00,0,,145
2014-4-6,59,52,44,39,35,27,76,56,38,30.06,29.94,29.86,10,10,5,17,6,29,0.00,5,,185
2014-4-7,60,51,42,43,36,32,71,59,44,29.99,29.88,29.80,10,10,7,26,9,36,0.00,3,,316
2014-4-8,62,50,37,34,25,12,75,43,17,30.16,30.09,30.00,10,10,10,28,16,40,0.00,1,,345
2014-4-9,80,58,37,37,27,14,45,30,20,30.14,29.99,29.81,10,10,10,31,14,38,0.00,0,,192
2014-4-10,69,58,48,39,34,27,58,37,24,30.03,29.89,29.73,10,10,5,25,16,34,0.00,0,,55
2014-4-11,80,63,46,52,35,25,68,38,21,30.07,30.00,29.90,10,8,3,18,8,22,0.00,0,,119
2014-4-12,87,72,57,57,54,50,82,58,31,29.91,29.70,29.55,10,10,7,31,17,41,0.00,0,,179
2014-4-13,77,55,33,57,46,27,82,69,50,29.92,29.61,29.46,10,10,7,34,18,44,0.15,4,Thunderstorm,237
2014-4-14,46,38,30,27,18,10,80,50,23,30.23,30.14,29.89,10,9,2,31,23,41,0.00,3,,342
2014-4-15,60,43,26,25,17,12,69,38,19,30.23,30.12,29.94,10,10,10,21,8,29,0.00,0,,221
2014-4-16,69,56,44,34,25,16,53,32,20,30.12,29.90,29.83,10,10,10,40,21,51,0.00,0,,199
2014-4-17,50,42,35,30,28,23,75,62,47,30.34,30.26,30.13,10,9,2,18,12,23,0.00,1,,40
2014-4-18,69,51,33,43,35,27,81,56,33,30.32,30.23,30.12,10,7,2,21,7,24,0.00,0,,167
2014-4-19,80,64,48,48,42,36,66,48,30,30.15,30.09,30.03,10,10,8,32,14,39,0.00,0,,176
2014-4-20,69,63,57,59,50,45,78,60,49,30.11,30.07,29.99,10,10,10,20,14,24,0.00,0,,183
2014-4-21,78,66,53,54,46,27,88,57,27,30.13,30.05,30.00,10,9,2,26,10,31,0.00,2,,327
2014-4-22,75,60,46,32,28,25,50,31,19,30.18,30.10,29.97,10,10,1,14,9,18,0.00,0,,98
2014-4-23,84,68,53,54,40,30,64,36,23,29.96,29.80,29.60,10,10,10,32,17,41,0.00,1,Thunderstorm,164
2014-4-24,68,58,48,55,44,34,82,59,32,29.94,29.77,29.60,10,10,6,31,18,38,0.12,4,Thunderstorm,310
2014-4-25,80,62,44,39,36,32,62,40,20,29.97,29.90,29.80,10,10,10,30,14,37,0.00,0,,201
2014-4-26,87,72,57,57,47,36,57,42,35,29.82,29.64,29.51,10,10,10,30,18,39,0.00,0,,172
2014-4-27,80,68,57,61,47,28,83,50,16,29.54,29.36,29.24,10,8,3,37,24,46,0.02,2,Thunderstorm,194
2014-4-28,57,50,44,37,35,34,66,54,41,29.60,29.47,29.35,10,10,4,34,19,45,0.00,5,,283
2014-4-29,46,42,39,37,34,32,87,70,61,29.99,29.75,29.59,10,10,4,30,23,40,0.06,8,,316
2014-4-30,55,46,37,34,28,21,75,49,26,30.10,30.06,29.99,10,10,10,29,18,36,0.00,5,,320